Terminal Aerodrome Forecast
Issued by NWS

Home | Current Version | Previous Version | Text Only | Print | Product List | Glossary On
Versions: 1 2 3 4 5 6 7 8 9 10 11 12 13 14 15 16 17
000
FTUS46 KSEW 211700
TAFCLM
TAF
KCLM 211723Z 2118/2218 00000KT P6SM FEW070 BKN150
     FM212300 VRB04KT P6SM -RA OVC050
     FM220400 08004KT P6SM RA OVC035
     FM220900 VRB05KT 4SM RA BR OVC020=

USA.gov is the U.S. government's official web portal to all federal, state and local government web resources and services.